createdAt,value
2024-02-20T00:00:32.948Z,72.14
2024-02-20T00:03:20.844Z,72.88
2024-02-20T00:05:48.727Z,73.38
2024-02-20T00:08:16.873Z,73.50
2024-02-20T00:10:44.962Z,73.50
2024-02-20T00:13:13.892Z,73.52
2024-02-20T00:15:42.856Z,73.56
2024-02-20T00:18:11.553Z,73.40
2024-02-20T00:20:41.266Z,73.30
2024-02-20T00:23:11.735Z,73.17
2024-02-20T00:25:44.097Z,73.63
2024-02-20T00:28:13.355Z,73.53
2024-02-20T00:30:41.608Z,73.24
2024-02-20T00:33:09.886Z,73.14
2024-02-20T00:35:38.000Z,72.65
2024-02-20T00:38:05.952Z,72.65
2024-02-20T00:40:33.816Z,72.82
2024-02-20T00:43:02.004Z,72.77
2024-02-20T00:45:29.933Z,72.79
2024-02-20T00:47:57.863Z,73.18
2024-02-20T00:50:26.131Z,73.60
2024-02-20T00:52:54.337Z,73.95
2024-02-20T00:55:22.672Z,74.09
2024-02-20T00:57:50.711Z,73.89
2024-02-20T01:00:18.942Z,73.92
2024-02-20T01:02:48.814Z,74.15
2024-02-20T01:05:17.717Z,74.28
2024-02-20T01:07:45.854Z,74.35
2024-02-20T01:10:14.071Z,74.68
2024-02-20T01:12:42.135Z,74.78
2024-02-20T01:15:10.290Z,74.69
2024-02-20T01:17:38.211Z,74.94
2024-02-20T01:20:07.696Z,74.78
2024-02-20T01:22:35.787Z,74.55
2024-02-20T01:25:05.091Z,74.35
2024-02-20T01:27:33.129Z,74.36
2024-02-20T01:30:01.035Z,74.13
2024-02-20T01:32:29.723Z,74.48
2024-02-20T01:34:58.128Z,75.18
2024-02-20T01:37:26.608Z,75.82
2024-02-20T01:39:54.558Z,76.00
2024-02-20T01:42:22.457Z,75.81
2024-02-20T01:44:50.278Z,75.73
2024-02-20T01:47:18.690Z,75.87
2024-02-20T01:49:47.746Z,76.05
2024-02-20T01:52:16.357Z,76.10
2024-02-20T01:54:44.765Z,75.99
2024-02-20T01:57:12.918Z,76.30
2024-02-20T01:59:41.124Z,76.15
2024-02-20T02:02:09.412Z,76.15
2024-02-20T02:04:37.977Z,76.22
2024-02-20T02:07:06.262Z,76.20
2024-02-20T02:09:34.219Z,75.93
2024-02-20T02:12:02.277Z,75.92
2024-02-20T02:14:30.084Z,75.87
2024-02-20T02:16:58.239Z,75.85
2024-02-20T02:19:26.260Z,76.10
2024-02-20T02:21:54.617Z,76.30
2024-02-20T02:24:22.846Z,76.56
2024-02-20T02:26:50.714Z,76.85
2024-02-20T02:29:18.999Z,77.10
2024-02-20T02:31:47.060Z,77.06
2024-02-20T02:34:15.603Z,76.83
2024-02-20T02:36:45.815Z,76.92
2024-02-20T02:39:14.036Z,76.92
2024-02-20T02:41:41.879Z,76.75
2024-02-20T02:44:09.913Z,76.89
2024-02-20T02:46:37.833Z,76.75
2024-02-20T02:49:07.085Z,76.63
2024-02-20T02:51:35.354Z,76.67
2024-02-20T02:54:03.629Z,76.93
2024-02-20T02:56:31.905Z,76.78
2024-02-20T02:59:04.079Z,76.73
2024-02-20T03:01:32.300Z,76.28
2024-02-20T03:04:01.580Z,76.01
2024-02-20T03:06:29.693Z,75.98
2024-02-20T03:08:57.753Z,76.23
2024-02-20T03:11:25.763Z,76.81
2024-02-20T03:13:53.829Z,76.81
2024-02-20T03:16:21.869Z,77.26
2024-02-20T03:18:50.061Z,77.32
2024-02-20T03:21:18.329Z,77.46
2024-02-20T03:23:46.825Z,77.28
2024-02-20T03:26:15.231Z,76.90
2024-02-20T03:28:44.917Z,76.63
2024-02-20T03:31:14.891Z,77.22
2024-02-20T03:33:43.128Z,77.52
2024-02-20T03:36:11.268Z,77.68
2024-02-20T03:38:39.235Z,77.76
2024-02-20T03:41:07.323Z,77.61
2024-02-20T03:43:38.689Z,77.20
2024-02-20T03:46:07.373Z,77.08
2024-02-20T03:48:35.681Z,76.91
2024-02-20T03:51:05.038Z,76.56
2024-02-20T03:53:32.925Z,75.69
2024-02-20T03:56:00.781Z,75.33
2024-02-20T03:58:28.717Z,75.21
2024-02-20T04:00:57.009Z,74.83
2024-02-20T04:03:25.036Z,74.61
2024-02-20T04:05:53.114Z,74.44
2024-02-20T04:08:21.335Z,74.71
2024-02-20T04:10:49.965Z,74.72
2024-02-20T04:13:18.103Z,74.48
2024-02-20T04:15:50.224Z,73.61
2024-02-20T04:18:18.592Z,73.00
2024-02-20T04:20:46.706Z,73.28
2024-02-20T04:23:14.895Z,73.58
2024-02-20T04:25:44.671Z,73.63
2024-02-20T04:28:13.339Z,73.82
2024-02-20T04:30:46.345Z,74.10
2024-02-20T04:33:14.501Z,74.07
2024-02-20T04:35:42.810Z,74.34
2024-02-20T04:38:11.592Z,74.20
2024-02-20T04:40:39.541Z,74.27
2024-02-20T04:43:07.509Z,74.60
2024-02-20T04:45:35.765Z,74.84
2024-02-20T04:48:03.989Z,75.19
2024-02-20T04:50:32.166Z,74.99
2024-02-20T04:53:00.125Z,74.79
2024-02-20T04:55:28.342Z,75.00
2024-02-20T04:57:56.514Z,75.32
2024-02-20T05:00:24.833Z,75.57
2024-02-20T05:02:52.825Z,75.74
2024-02-20T05:05:20.977Z,76.10
2024-02-20T05:07:50.296Z,76.38
2024-02-20T05:10:18.798Z,76.68
2024-02-20T05:12:46.850Z,76.50
2024-02-20T05:15:14.813Z,75.88
2024-02-20T05:17:42.923Z,75.35
2024-02-20T05:20:11.191Z,75.03
2024-02-20T05:22:39.639Z,74.60
2024-02-20T05:25:08.390Z,75.14
2024-02-20T05:27:36.425Z,76.11
2024-02-20T05:30:04.752Z,77.14
2024-02-20T05:32:33.100Z,77.93
2024-02-20T05:35:01.396Z,78.15
2024-02-20T05:37:29.552Z,78.19
2024-02-20T05:39:57.608Z,76.78
2024-02-20T05:42:25.829Z,76.67
2024-02-20T05:44:53.677Z,77.30
2024-02-20T05:47:21.536Z,78.15
2024-02-20T05:49:49.525Z,79.17
2024-02-20T05:52:17.716Z,79.93
2024-02-20T05:54:47.569Z,79.93
2024-02-20T05:57:15.484Z,79.53
2024-02-20T05:59:43.437Z,79.58
2024-02-20T06:02:11.523Z,79.66
2024-02-20T06:04:40.845Z,79.88
2024-02-20T06:07:09.361Z,79.88
2024-02-20T06:09:41.055Z,80.17
2024-02-20T06:12:11.250Z,80.22
2024-02-20T06:14:43.112Z,79.84
2024-02-20T06:17:11.986Z,79.22
2024-02-20T06:19:39.995Z,78.61
2024-02-20T06:22:08.339Z,78.23
2024-02-20T06:24:36.840Z,78.44
2024-02-20T06:27:08.409Z,78.50
2024-02-20T06:29:37.310Z,78.22
2024-02-20T06:32:06.112Z,78.50
2024-02-20T06:34:34.461Z,78.43
2024-02-20T06:37:03.066Z,78.29
2024-02-20T06:39:31.373Z,78.46
2024-02-20T06:41:59.561Z,78.50
2024-02-20T06:44:27.602Z,78.49
2024-02-20T06:46:55.800Z,78.28
2024-02-20T06:49:24.676Z,78.17
2024-02-20T06:51:52.925Z,77.90
2024-02-20T06:54:20.939Z,77.56
2024-02-20T06:56:48.840Z,77.42
2024-02-20T06:59:16.896Z,77.36
2024-02-20T07:01:45.061Z,77.52
2024-02-20T07:04:15.228Z,77.09
2024-02-20T07:06:43.667Z,76.56
2024-02-20T07:09:11.933Z,76.52
2024-02-20T07:11:39.824Z,76.32
2024-02-20T07:14:08.074Z,76.45
2024-02-20T07:16:36.773Z,76.56
2024-02-20T07:19:05.140Z,75.95
2024-02-20T07:21:33.475Z,75.59
2024-02-20T07:24:01.471Z,75.62
2024-02-20T07:26:29.427Z,74.74
2024-02-20T07:28:58.320Z,75.36
2024-02-20T07:31:26.996Z,75.34
2024-02-20T07:34:03.892Z,75.31
2024-02-20T07:36:38.553Z,75.39
2024-02-20T07:39:06.696Z,75.61
2024-02-20T07:41:35.996Z,75.75
2024-02-20T07:44:04.147Z,75.67
2024-02-20T07:46:33.943Z,75.63
2024-02-20T07:49:02.396Z,75.65
2024-02-20T07:51:31.605Z,75.31
2024-02-20T07:53:59.557Z,74.90
2024-02-20T07:56:28.988Z,74.75
2024-02-20T07:58:56.995Z,75.13
2024-02-20T08:01:26.521Z,75.14
2024-02-20T08:03:55.350Z,73.91
2024-02-20T08:06:32.367Z,73.69
2024-02-20T08:09:00.487Z,73.55
2024-02-20T08:11:29.298Z,73.87
2024-02-20T08:13:57.270Z,73.82
2024-02-20T08:16:25.390Z,73.35
2024-02-20T08:18:53.723Z,73.40
2024-02-20T08:21:21.924Z,73.63
2024-02-20T08:23:50.166Z,73.09
2024-02-20T08:26:18.573Z,73.10
2024-02-20T08:28:47.824Z,73.36
2024-02-20T08:31:20.313Z,73.46
2024-02-20T08:33:49.602Z,72.94
2024-02-20T08:36:19.026Z,72.91
2024-02-20T08:38:47.272Z,72.69
2024-02-20T08:41:15.141Z,72.49
2024-02-20T08:43:43.951Z,72.26
2024-02-20T08:46:11.884Z,71.90
2024-02-20T08:48:39.751Z,71.79
2024-02-20T08:51:07.861Z,71.16
2024-02-20T08:53:36.132Z,70.82
2024-02-20T08:56:04.696Z,71.17
2024-02-20T08:58:33.004Z,71.05
2024-02-20T09:01:02.830Z,70.15
2024-02-20T09:03:31.303Z,70.18
2024-02-20T09:05:59.645Z,70.08
2024-02-20T09:08:27.812Z,69.54
2024-02-20T09:10:55.953Z,69.60
2024-02-20T09:13:24.159Z,69.50
2024-02-20T09:15:53.227Z,69.58
2024-02-20T09:18:21.288Z,69.68
2024-02-20T09:20:50.268Z,69.64
2024-02-20T09:23:18.246Z,69.80
2024-02-20T09:25:47.702Z,69.69
2024-02-20T09:28:15.860Z,69.48
2024-02-20T09:30:43.886Z,69.65
2024-02-20T09:33:14.936Z,69.50
2024-02-20T09:35:43.077Z,69.31
2024-02-20T09:38:11.684Z,69.51
2024-02-20T09:40:39.929Z,69.42
2024-02-20T09:43:08.988Z,69.46
2024-02-20T09:45:41.080Z,69.25
2024-02-20T09:48:15.603Z,71.22
2024-02-20T09:50:44.043Z,71.42
2024-02-20T09:53:15.560Z,70.18
2024-02-20T09:55:45.464Z,70.12
2024-02-20T09:58:13.527Z,69.63
2024-02-20T10:00:41.806Z,69.23
2024-02-20T10:03:10.496Z,69.01
2024-02-20T10:05:44.164Z,69.22
2024-02-20T10:08:12.162Z,69.08
2024-02-20T10:10:41.973Z,69.30
2024-02-20T10:13:10.277Z,69.52
2024-02-20T10:15:38.364Z,69.62
2024-02-20T10:18:07.309Z,69.30
2024-02-20T10:20:36.032Z,69.35
2024-02-20T10:23:05.401Z,68.64
2024-02-20T10:25:33.387Z,69.53
2024-02-20T10:28:02.810Z,68.80
2024-02-20T10:30:31.723Z,68.49
2024-02-20T10:33:00.300Z,68.46
2024-02-20T10:35:28.889Z,67.93
2024-02-20T10:38:01.851Z,67.33
2024-02-20T10:40:30.824Z,66.56
2024-02-20T10:42:59.634Z,66.21
2024-02-20T10:45:29.006Z,65.27
2024-02-20T10:47:59.175Z,64.71
2024-02-20T10:50:27.700Z,64.76
2024-02-20T10:52:58.819Z,65.43
2024-02-20T10:55:32.644Z,65.26
2024-02-20T10:58:05.525Z,64.46
2024-02-20T11:00:38.467Z,64.48
2024-02-20T11:03:10.011Z,64.28
2024-02-20T11:05:38.539Z,64.16
2024-02-20T11:08:11.850Z,64.12
2024-02-20T11:10:41.859Z,63.88
2024-02-20T11:13:15.185Z,63.96
2024-02-20T11:15:43.720Z,63.60
2024-02-20T11:18:16.920Z,63.48
2024-02-20T11:20:45.880Z,63.25
2024-02-20T11:23:14.115Z,62.22
2024-02-20T11:25:45.005Z,62.60
2024-02-20T11:28:18.208Z,62.83
2024-02-20T11:30:47.458Z,62.96
2024-02-20T11:33:20.662Z,62.91
2024-02-20T11:35:50.441Z,63.43
2024-02-20T11:38:21.720Z,64.15
2024-02-20T11:40:50.312Z,64.74
2024-02-20T11:43:20.892Z,64.62
2024-02-20T11:45:51.468Z,64.38
2024-02-20T11:48:19.808Z,64.36
2024-02-20T11:50:48.306Z,64.57
2024-02-20T11:53:17.827Z,64.71
2024-02-20T11:55:55.652Z,64.99
2024-02-20T11:58:27.757Z,65.16
2024-02-20T12:01:05.664Z,65.67
2024-02-20T12:03:35.986Z,65.81
2024-02-20T12:06:06.639Z,65.93
2024-02-20T12:08:41.832Z,65.83
2024-02-20T12:11:12.726Z,65.90
2024-02-20T12:13:41.442Z,65.86
2024-02-20T12:16:24.483Z,65.68
2024-02-20T12:18:53.495Z,65.58
2024-02-20T12:21:26.160Z,65.60
2024-02-20T12:23:55.166Z,65.63
2024-02-20T12:26:23.987Z,65.36
2024-02-20T12:28:52.115Z,65.61
2024-02-20T12:31:24.928Z,65.61
2024-02-20T12:33:53.517Z,65.61
2024-02-20T12:36:21.996Z,65.51
2024-02-20T12:38:50.088Z,65.72
2024-02-20T12:41:18.151Z,65.74
2024-02-20T12:43:46.274Z,65.40
2024-02-20T12:46:14.682Z,65.29
2024-02-20T12:48:52.025Z,64.58
2024-02-20T12:51:20.360Z,63.84
2024-02-20T12:53:48.848Z,63.93
2024-02-20T12:56:17.017Z,63.15
2024-02-20T12:58:47.269Z,62.85
2024-02-20T13:01:16.540Z,62.46
2024-02-20T13:03:45.039Z,61.83
2024-02-20T13:06:13.217Z,61.21
2024-02-20T13:08:41.401Z,60.92
2024-02-20T13:11:10.933Z,60.83
2024-02-20T13:13:39.050Z,60.59
2024-02-20T13:16:07.768Z,60.07
2024-02-20T13:18:35.927Z,60.12
2024-02-20T13:21:06.686Z,60.34
2024-02-20T13:23:34.813Z,60.61
2024-02-20T13:26:02.796Z,60.42
2024-02-20T13:28:30.992Z,60.74
2024-02-20T13:30:59.451Z,60.92
2024-02-20T13:33:27.616Z,61.05
2024-02-20T13:35:55.643Z,61.08
2024-02-20T13:38:23.809Z,61.47
2024-02-20T13:40:52.945Z,61.60
2024-02-20T13:43:21.207Z,61.91
2024-02-20T13:45:53.857Z,62.27
2024-02-20T13:48:21.917Z,62.28
2024-02-20T13:50:50.506Z,62.63
2024-02-20T13:53:19.288Z,63.07
2024-02-20T13:55:48.871Z,63.23
2024-02-20T13:58:17.345Z,62.79
2024-02-20T14:00:45.699Z,62.80
2024-02-20T14:03:17.357Z,62.53
2024-02-20T14:05:46.249Z,62.40
2024-02-20T14:08:14.371Z,62.40
2024-02-20T14:10:42.630Z,62.29
2024-02-20T14:13:10.614Z,62.06
2024-02-20T14:15:38.979Z,62.14
2024-02-20T14:18:07.167Z,61.98
2024-02-20T14:20:36.357Z,61.68
2024-02-20T14:23:07.906Z,61.78
2024-02-20T14:25:36.483Z,61.18
2024-02-20T14:28:05.639Z,60.85
2024-02-20T14:30:40.997Z,60.92
2024-02-20T14:33:13.804Z,60.79
2024-02-20T14:35:42.010Z,60.91
2024-02-20T14:38:12.020Z,61.12
2024-02-20T14:40:40.624Z,61.28
2024-02-20T14:43:08.712Z,61.40
2024-02-20T14:45:36.539Z,61.62
2024-02-20T14:48:06.120Z,61.54
2024-02-20T14:50:34.308Z,61.94
2024-02-20T14:53:03.432Z,61.84
2024-02-20T14:55:32.545Z,61.96
2024-02-20T14:58:01.207Z,61.89
2024-02-20T15:00:29.024Z,62.14
2024-02-20T15:02:57.653Z,62.00
2024-02-20T15:05:26.209Z,62.17
2024-02-20T15:07:54.322Z,62.08
2024-02-20T15:10:22.673Z,62.05
2024-02-20T15:12:50.637Z,62.11
2024-02-20T15:15:19.306Z,62.49
2024-02-20T15:17:47.620Z,63.12
2024-02-20T15:20:16.072Z,63.74
2024-02-20T15:22:44.179Z,63.44
2024-02-20T15:25:17.230Z,63.03
2024-02-20T15:27:48.480Z,63.43
2024-02-20T15:30:17.688Z,63.89
2024-02-20T15:32:47.574Z,64.67
2024-02-20T15:35:16.522Z,65.38
2024-02-20T15:37:46.776Z,65.97
2024-02-20T15:40:15.728Z,66.36
2024-02-20T15:42:46.094Z,67.28
2024-02-20T15:45:14.379Z,68.45
2024-02-20T15:47:42.906Z,69.24
2024-02-20T15:50:12.158Z,69.97
2024-02-20T15:52:42.286Z,70.07
2024-02-20T15:55:13.059Z,70.12
2024-02-20T15:57:41.372Z,69.97
2024-02-20T16:00:10.173Z,70.44
2024-02-20T16:02:43.632Z,70.52
2024-02-20T16:05:11.953Z,70.50
2024-02-20T16:07:40.449Z,70.58
2024-02-20T16:10:08.839Z,70.53
2024-02-20T16:12:38.443Z,70.63
2024-02-20T16:15:07.813Z,70.93
2024-02-20T16:17:39.605Z,71.00
2024-02-20T16:20:08.518Z,71.04
2024-02-20T16:22:37.113Z,70.92
2024-02-20T16:25:08.336Z,70.96
2024-02-20T16:27:36.743Z,71.56
2024-02-20T16:30:06.380Z,71.66
2024-02-20T16:32:34.476Z,71.64
2024-02-20T16:35:05.042Z,71.60
2024-02-20T16:37:33.260Z,71.68
2024-02-20T16:40:01.358Z,72.09
2024-02-20T16:42:29.299Z,72.12
2024-02-20T16:44:57.322Z,72.14
2024-02-20T16:47:25.185Z,72.17
2024-02-20T16:49:53.292Z,72.18
2024-02-20T16:52:21.332Z,72.54
2024-02-20T16:54:49.490Z,72.67
2024-02-20T16:57:17.779Z,72.85
2024-02-20T16:59:45.658Z,73.23
2024-02-20T17:02:13.758Z,73.06
2024-02-20T17:04:42.585Z,73.03
2024-02-20T17:07:11.141Z,73.16
2024-02-20T17:09:39.985Z,73.06
2024-02-20T17:12:07.963Z,73.08
2024-02-20T17:14:36.044Z,73.19
2024-02-20T17:17:04.480Z,73.24
2024-02-20T17:19:32.679Z,73.28
2024-02-20T17:22:00.784Z,73.33
2024-02-20T17:24:28.973Z,73.26
2024-02-20T17:26:58.790Z,72.55
2024-02-20T17:29:28.590Z,72.88
2024-02-20T17:31:57.316Z,72.58
2024-02-20T17:34:26.201Z,72.95
2024-02-20T17:36:56.389Z,72.92
2024-02-20T17:39:24.483Z,73.54
2024-02-20T17:41:52.544Z,73.83
2024-02-20T17:44:20.456Z,73.91
2024-02-20T17:46:52.105Z,74.27
2024-02-20T17:49:21.237Z,74.48
2024-02-20T17:51:51.242Z,74.53
2024-02-20T17:54:19.130Z,74.78
2024-02-20T17:56:47.435Z,74.72
2024-02-20T17:59:15.761Z,74.43
2024-02-20T18:01:45.170Z,74.50
2024-02-20T18:04:13.228Z,74.19
2024-02-20T18:06:41.900Z,74.13
2024-02-20T18:09:11.153Z,73.99
2024-02-20T18:11:39.125Z,74.25
2024-02-20T18:14:07.334Z,74.21
2024-02-20T18:16:35.509Z,73.98
2024-02-20T18:19:03.742Z,73.88
2024-02-20T18:21:31.983Z,74.00
2024-02-20T18:24:00.771Z,74.15
2024-02-20T18:26:30.863Z,74.02
2024-02-20T18:28:59.740Z,73.61
2024-02-20T18:31:28.143Z,73.15
2024-02-20T18:33:56.193Z,73.14
2024-02-20T18:36:24.064Z,73.47
2024-02-20T18:38:52.684Z,73.94
2024-02-20T18:41:20.794Z,74.33
2024-02-20T18:43:49.022Z,74.38
2024-02-20T18:46:17.439Z,74.98
2024-02-20T18:48:45.501Z,75.18
2024-02-20T18:51:13.569Z,75.36
2024-02-20T18:53:41.389Z,75.74
2024-02-20T18:56:09.325Z,76.21
2024-02-20T18:58:37.350Z,76.33
2024-02-20T19:01:05.348Z,76.41
2024-02-20T19:03:33.698Z,76.42
2024-02-20T19:06:01.894Z,76.82
2024-02-20T19:08:34.804Z,76.90
2024-02-20T19:11:03.277Z,76.84
2024-02-20T19:13:31.750Z,77.03
2024-02-20T19:15:59.747Z,76.76
2024-02-20T19:18:27.893Z,76.48
2024-02-20T19:20:55.959Z,76.47
2024-02-20T19:23:24.053Z,76.67
2024-02-20T19:25:52.339Z,76.49
2024-02-20T19:28:20.507Z,76.71
2024-02-20T19:30:48.538Z,76.61
2024-02-20T19:33:16.803Z,76.57
2024-02-20T19:35:46.708Z,76.73
2024-02-20T19:38:19.290Z,76.89
2024-02-20T19:40:50.116Z,76.75
2024-02-20T19:43:19.372Z,76.38
2024-02-20T19:45:47.834Z,76.43
2024-02-20T19:48:15.941Z,76.89
2024-02-20T19:50:44.608Z,77.44
2024-02-20T19:53:16.452Z,77.59
2024-02-20T19:55:44.599Z,78.37
2024-02-20T19:58:15.898Z,78.96
2024-02-20T20:00:47.181Z,79.42
2024-02-20T20:03:15.148Z,79.12
2024-02-20T20:05:44.013Z,78.39
2024-02-20T20:08:12.265Z,77.87
2024-02-20T20:10:40.529Z,77.86
2024-02-20T20:13:10.688Z,77.90
2024-02-20T20:15:38.693Z,77.85
2024-02-20T20:18:07.246Z,77.69
2024-02-20T20:20:35.485Z,77.66
2024-02-20T20:23:03.861Z,77.62
2024-02-20T20:25:32.020Z,77.45
2024-02-20T20:28:00.044Z,77.30
2024-02-20T20:30:28.194Z,77.42
2024-02-20T20:32:56.212Z,77.49
2024-02-20T20:35:27.860Z,77.45
2024-02-20T20:37:57.766Z,77.54
2024-02-20T20:40:26.172Z,77.58
2024-02-20T20:42:54.374Z,77.25
2024-02-20T20:45:22.529Z,76.99
2024-02-20T20:47:50.503Z,77.39
2024-02-20T20:50:18.767Z,77.87
2024-02-20T20:52:46.925Z,78.43
2024-02-20T20:55:15.405Z,79.06
2024-02-20T20:57:43.356Z,79.50
2024-02-20T21:00:14.382Z,79.71
2024-02-20T21:02:42.435Z,79.95
2024-02-20T21:05:10.480Z,79.93
2024-02-20T21:07:38.629Z,79.62
2024-02-20T21:10:07.034Z,79.49
2024-02-20T21:12:35.005Z,79.48
2024-02-20T21:15:04.850Z,79.28
2024-02-20T21:17:33.063Z,78.88
2024-02-20T21:20:01.217Z,78.63
2024-02-20T21:22:29.559Z,78.36
2024-02-20T21:24:57.488Z,78.04
2024-02-20T21:27:25.385Z,77.58
2024-02-20T21:29:53.484Z,77.27
2024-02-20T21:32:21.476Z,77.13
2024-02-20T21:34:49.468Z,77.19
2024-02-20T21:37:18.476Z,77.16
2024-02-20T21:39:46.643Z,76.89
2024-02-20T21:42:15.069Z,77.00
2024-02-20T21:44:43.333Z,77.34
2024-02-20T21:47:11.617Z,77.61
2024-02-20T21:49:39.551Z,76.86
2024-02-20T21:52:08.987Z,75.98
2024-02-20T21:54:37.093Z,75.57
2024-02-20T21:57:06.149Z,75.56
2024-02-20T21:59:34.215Z,75.64
2024-02-20T22:02:02.239Z,75.57
2024-02-20T22:04:30.351Z,75.65
2024-02-20T22:06:58.421Z,75.12
2024-02-20T22:09:27.486Z,75.36
2024-02-20T22:11:56.517Z,75.69
2024-02-20T22:14:25.064Z,75.84
2024-02-20T22:16:53.150Z,75.62
2024-02-20T22:19:21.573Z,75.91
2024-02-20T22:21:49.876Z,76.28
2024-02-20T22:24:18.015Z,76.78
2024-02-20T22:26:45.917Z,76.98
2024-02-20T22:29:13.732Z,77.09
2024-02-20T22:31:41.852Z,77.03
2024-02-20T22:34:09.983Z,77.15
2024-02-20T22:36:38.070Z,77.29
2024-02-20T22:39:06.229Z,77.16
2024-02-20T22:41:34.431Z,76.87
2024-02-20T22:44:02.594Z,77.06
2024-02-20T22:46:30.485Z,77.28
2024-02-20T22:48:58.637Z,77.85
2024-02-20T22:51:27.151Z,77.91
2024-02-20T22:53:55.185Z,78.38
2024-02-20T22:56:24.869Z,79.19
2024-02-20T22:58:53.349Z,80.01
2024-02-20T23:01:21.439Z,80.32
2024-02-20T23:03:50.049Z,80.79
2024-02-20T23:06:18.093Z,81.40
2024-02-20T23:08:46.386Z,81.89
2024-02-20T23:11:14.367Z,82.32
2024-02-20T23:13:42.530Z,82.95
2024-02-20T23:16:10.812Z,83.28
2024-02-20T23:18:38.838Z,83.51
2024-02-20T23:21:07.252Z,83.73
2024-02-20T23:23:35.322Z,83.45
2024-02-20T23:26:03.285Z,83.26
2024-02-20T23:28:31.331Z,83.56
2024-02-20T23:30:59.643Z,84.07
2024-02-20T23:33:27.818Z,84.05
2024-02-20T23:35:55.835Z,83.63
2024-02-20T23:38:23.644Z,82.95
2024-02-20T23:40:53.308Z,83.10
2024-02-20T23:43:21.727Z,82.98
2024-02-20T23:45:50.021Z,83.30
2024-02-20T23:48:18.862Z,83.37
2024-02-20T23:50:47.235Z,83.47
2024-02-20T23:53:15.366Z,83.77
2024-02-20T23:55:43.715Z,84.01
2024-02-20T23:58:11.745Z,84.05
